»·PEaware :: N653SL KSTS-KBUR

N653SL :: KSTS-KBUR

FLIGHT INFORMATION

Flight Status: Arrived
Operator: Privately registered:
United States
More flights under this callsign
Pilot: David I. (28153)
Aircraft: CESSNA 550 CITATION 2/S2/BRAVO
(C550)
More flights by this aircraft type
Origin: KSTS Sonoma Co
United States
Destination: KBUR Bob Hope-Burbank
United States
More flights between these airports :: More routes between these airports
Route: +FREES9 SGD OAK RDHOT ROKKR2
File this flight plan on PilotEdge
Remarks:
Altitude:
(Current/Filed)
25,000ft
Speed:
(Current/Filed)
350kts
Departed: 20-Nov-20 03:31 PM
Arrived: 20-Nov-20 04:37 PM
Distance/Time
Traveled:
336nm/1:05
Distance/Time
To Go:
Arrived

Flight Plot

Page will automatically refresh every two minutes.

Flight plan parsing failed; only flown route is shown


Map Options




Map Legend


Flown Route
Filed Route
Departure Airport
Arrival Airport
Navaid (VOR, NDB)
Fix

Horizontal Profiles

Position Reports

Time Latitude Longitude Heading Altitude Ground
Speed
20-Nov-20 15:08 38.512874 -122.805219 180 117ft 0kts
20-Nov-20 15:09 38.512874 -122.805219 180 117ft 0kts
20-Nov-20 15:10 38.512874 -122.805219 180 117ft 0kts
20-Nov-20 15:11 38.512874 -122.805219 180 117ft 0kts
20-Nov-20 15:12 38.512874 -122.805219 180 117ft 0kts
20-Nov-20 15:13 38.512874 -122.805219 180 117ft 0kts
20-Nov-20 15:14 38.512874 -122.805219 180 117ft 0kts
20-Nov-20 15:15 38.512874 -122.805219 180 117ft 0kts
20-Nov-20 15:16 38.512874 -122.805219 180 117ft 0kts
20-Nov-20 15:17 38.512874 -122.805219 180 117ft 0kts
20-Nov-20 15:18 38.512874 -122.805219 180 117ft 0kts
20-Nov-20 15:19 38.512874 -122.805219 180 117ft 0kts
20-Nov-20 15:20 38.512874 -122.805219 180 117ft 0kts
20-Nov-20 15:21 38.512874 -122.805219 180 117ft 0kts
20-Nov-20 15:22 38.512874 -122.805219 180 117ft 0kts
20-Nov-20 15:22 38.512701 -122.805310 233 117ft 2kts
20-Nov-20 15:24 38.513194 -122.806497 269 117ft 5kts
20-Nov-20 15:24 38.513182 -122.808840 269 117ft 7kts
20-Nov-20 15:26 38.511459 -122.808969 157 117ft 10kts
20-Nov-20 15:26 38.508904 -122.807599 157 117ft 11kts
20-Nov-20 15:28 38.505486 -122.805771 157 117ft 11kts
20-Nov-20 15:28 38.503194 -122.804542 158 117ft 9kts
20-Nov-20 15:29 38.503645 -122.806366 337 117ft 27kts
20-Nov-20 15:30 38.526613 -122.827987 268 1732ft 140kts
20-Nov-20 15:31 38.493474 -122.842227 178 4600ft 158kts
20-Nov-20 15:32 38.452318 -122.858512 232 7593ft 173kts
20-Nov-20 15:33 38.416931 -122.902452 205 10362ft 193kts
20-Nov-20 15:34 38.374919 -122.871305 101 13031ft 211kts
20-Nov-20 15:35 38.347409 -122.802178 122 15160ft 236kts
20-Nov-20 15:36 38.315225 -122.722113 120 16870ft 273kts
20-Nov-20 15:37 38.280026 -122.631323 120 18487ft 298kts
20-Nov-20 15:38 38.242071 -122.533712 121 20008ft 316kts
20-Nov-20 15:39 38.202479 -122.432222 122 21528ft 326kts
20-Nov-20 15:40 38.147617 -122.347031 156 23060ft 307kts
20-Nov-20 15:41 38.075673 -122.288792 158 24528ft 306kts
20-Nov-20 15:42 38.002227 -122.230153 158 25259ft 328kts
20-Nov-20 15:43 37.921180 -122.165202 157 25261ft 359kts
20-Nov-20 15:44 37.834986 -122.095815 156 25264ft 375kts
20-Nov-20 15:45 37.745876 -122.024336 156 25257ft 383kts
20-Nov-20 15:46 37.655263 -121.951932 156 25250ft 387kts
20-Nov-20 15:47 37.564169 -121.879398 156 25248ft 389kts
20-Nov-20 15:48 37.472668 -121.806774 156 25249ft 390kts
20-Nov-20 15:49 37.380806 -121.734099 156 25249ft 390kts
20-Nov-20 15:50 37.288985 -121.661660 156 25249ft 390kts
20-Nov-20 15:51 37.196999 -121.589309 156 25243ft 391kts
20-Nov-20 15:52 37.104926 -121.517101 156 25238ft 391kts
20-Nov-20 15:53 37.012565 -121.444871 157 25241ft 391kts
20-Nov-20 15:54 36.920408 -121.373023 157 25242ft 391kts
20-Nov-20 15:55 36.828129 -121.301282 158 25235ft 391kts
20-Nov-20 15:56 36.735728 -121.229648 158 25234ft 390kts
20-Nov-20 15:57 36.643933 -121.158632 158 25236ft 390kts
20-Nov-20 15:58 36.551495 -121.087389 158 25229ft 392kts
20-Nov-20 15:59 36.458529 -121.015955 158 25228ft 394kts
20-Nov-20 16:00 36.365044 -120.944319 157 25220ft 397kts
20-Nov-20 16:01 36.270989 -120.872449 157 25211ft 399kts
20-Nov-20 16:02 36.176340 -120.800316 157 25211ft 400kts
20-Nov-20 16:03 36.081775 -120.728460 157 25212ft 400kts
20-Nov-20 16:04 35.987136 -120.656754 157 25213ft 400kts
20-Nov-20 16:05 35.896362 -120.588177 157 25214ft 400kts
20-Nov-20 16:06 35.800876 -120.516244 157 25210ft 401kts
20-Nov-20 16:07 35.706843 -120.445605 157 25209ft 400kts
20-Nov-20 16:08 35.612371 -120.374469 155 25210ft 401kts
20-Nov-20 16:09 35.524285 -120.288775 148 25197ft 408kts
20-Nov-20 16:10 35.438512 -120.199249 148 25174ft 407kts
20-Nov-20 16:11 35.352086 -120.109364 148 25145ft 407kts
20-Nov-20 16:12 35.265973 -120.020163 148 25144ft 406kts
20-Nov-20 16:13 35.179774 -119.931100 148 25143ft 406kts
20-Nov-20 16:14 35.092590 -119.841344 147 23766ft 410kts
20-Nov-20 16:15 35.007167 -119.753469 147 21963ft 396kts
20-Nov-20 16:16 34.924425 -119.668722 146 20528ft 379kts
20-Nov-20 16:17 34.851411 -119.583335 134 19411ft 381kts
20-Nov-20 16:18 34.784584 -119.483812 133 17941ft 378kts
20-Nov-20 16:19 34.719763 -119.385184 132 16681ft 365kts
20-Nov-20 16:20 34.659211 -119.292816 132 15373ft 362kts
20-Nov-20 16:21 34.606583 -119.194123 123 13864ft 330kts
20-Nov-20 16:22 34.561664 -119.103118 123 12356ft 306kts
20-Nov-20 16:23 34.502848 -119.030829 144 10629ft 304kts
20-Nov-20 16:24 34.436136 -118.969936 143 9021ft 291kts
20-Nov-20 16:25 34.377351 -118.908117 121 8034ft 272kts
20-Nov-20 16:26 34.365456 -118.821527 93 7041ft 266kts
20-Nov-20 16:27 34.359407 -118.732971 94 6026ft 258kts
20-Nov-20 16:28 34.344541 -118.653098 101 5726ft 243kts
20-Nov-20 16:29 34.329557 -118.574232 101 5013ft 224kts
20-Nov-20 16:30 34.316961 -118.509310 101 5008ft 158kts
20-Nov-20 16:31 34.294314 -118.466943 125 4149ft 147kts
20-Nov-20 16:32 34.272627 -118.425479 117 3189ft 144kts
20-Nov-20 16:33 34.253718 -118.388448 122 2155ft 110kts
20-Nov-20 16:34 34.233302 -118.366311 163 1243ft 96kts
20-Nov-20 16:35 34.207674 -118.359170 165 784ft 90kts
20-Nov-20 16:36 34.198971 -118.357886 325 782ft 3kts
20-Nov-20 16:37 34.199817 -118.358556 351 782ft 4kts
20-Nov-20 16:38 34.200195 -118.358801 255 782ft 0kts
20-Nov-20 16:39 34.200195 -118.358801 255 782ft 0kts
20-Nov-20 16:40 34.200195 -118.358801 255 782ft 0kts

Navigation Log

Ident Type
Flight plan parsing failed, navigation log unavailable